Time;durP1;ratioP1;P1;durP2;ratioP2;P2;SDS_P1;SDS_P2;PMS_P1;PMS_P2;Temp;Humidity;BMP_temperature;BMP_pressure;BME280_temperature;BME280_humidity;BME280_pressure;Samples;Min_cycle;Max_cycle;Signal;HPM_P1;HPM_P2
2021/01/30 00:02:22;;;;;;;14.85;8.43;;;-1.00;70.10;;;;;;5043223;28;20025;-60
2021/01/30 00:04:49;;;;;;;13.23;7.95;;;-0.90;69.80;;;;;;5041810;28;20521;-61
2021/01/30 00:07:15;;;;;;;12.10;7.50;;;-1.00;69.90;;;;;;5037073;28;20030;-61
2021/01/30 00:09:40;;;;;;;11.35;8.32;;;-1.00;70.00;;;;;;5037586;28;20054;-60
2021/01/30 00:12:06;;;;;;;12.07;7.70;;;-1.00;69.90;;;;;;5039150;28;20010;-61
2021/01/30 00:14:37;;;;;;;11.65;7.60;;;-1.00;70.10;;;;;;5035469;28;20022;-61
2021/01/30 00:17:05;;;;;;;11.60;7.20;;;-1.00;70.00;;;;;;5038276;28;20068;-59
2021/01/30 00:19:31;;;;;;;11.48;7.72;;;-1.10;70.00;;;;;;5039342;28;20030;-59
2021/01/30 00:22:00;;;;;;;9.48;6.95;;;-1.10;70.20;;;;;;5037337;28;20108;-61
2021/01/30 00:24:28;;;;;;;11.07;7.47;;;-1.10;70.10;;;;;;5036824;28;20021;-61
2021/01/30 00:27:03;;;;;;;11.43;7.85;;;-1.00;70.00;;;;;;5037075;28;20026;-61
2021/01/30 00:29:32;;;;;;;15.93;9.10;;;-1.00;69.90;;;;;;5036117;28;20028;-61
2021/01/30 00:31:58;;;;;;;15.10;9.95;;;-1.00;69.80;;;;;;5037152;28;20448;-61
2021/01/30 00:34:27;;;;;;;12.20;8.15;;;-1.00;69.80;;;;;;5037901;28;20025;-61
2021/01/30 00:36:59;;;;;;;18.48;11.27;;;-1.10;69.80;;;;;;5040314;28;20072;-61
2021/01/30 00:39:25;;;;;;;14.70;10.05;;;-1.00;69.80;;;;;;5037877;28;20022;-61
2021/01/30 00:41:51;;;;;;;13.60;10.00;;;-1.00;69.80;;;;;;5035430;28;20036;-60
2021/01/30 00:44:17;;;;;;;13.63;8.75;;;-1.00;69.70;;;;;;5037258;28;20030;-61
2021/01/30 00:46:48;;;;;;;12.75;8.10;;;-1.00;69.60;;;;;;5037134;28;20083;-61
2021/01/30 00:49:13;;;;;;;13.75;8.90;;;-1.00;69.60;;;;;;5038427;28;20024;-61
2021/01/30 00:51:39;;;;;;;17.63;10.77;;;-1.00;69.60;;;;;;5036189;28;20385;-61
2021/01/30 00:54:05;;;;;;;14.30;9.52;;;-1.00;69.70;;;;;;5036789;28;20022;-61
2021/01/30 00:56:30;;;;;;;11.00;8.20;;;-1.00;69.70;;;;;;5035587;28;20032;-60
2021/01/30 00:58:56;;;;;;;14.80;8.50;;;-1.00;69.70;;;;;;5035026;28;20033;-61
2021/01/30 01:01:22;;;;;;;11.90;8.00;;;-1.00;69.50;;;;;;5039679;28;20055;-61
2021/01/30 01:03:47;;;;;;;12.73;8.27;;;-1.00;69.40;;;;;;5039809;28;20070;-61
2021/01/30 01:06:13;;;;;;;11.52;8.35;;;-1.10;69.50;;;;;;5039369;28;20029;-60
2021/01/30 01:08:39;;;;;;;13.30;8.68;;;-1.10;69.50;;;;;;5035781;28;20029;-61
2021/01/30 01:11:05;;;;;;;14.40;9.40;;;-1.10;70.30;;;;;;5036335;28;20022;-61
2021/01/30 01:13:31;;;;;;;14.13;8.57;;;-1.10;69.60;;;;;;5035036;28;20017;-60
2021/01/30 01:15:56;;;;;;;13.85;9.77;;;-1.10;69.70;;;;;;5034914;28;20021;-60
2021/01/30 01:18:23;;;;;;;20.20;11.40;;;-1.10;69.60;;;;;;5038801;28;20075;-61
2021/01/30 01:20:49;;;;;;;15.52;10.35;;;-1.20;69.40;;;;;;5038108;28;20029;-59
2021/01/30 01:23:15;;;;;;;14.68;9.57;;;-1.20;69.20;;;;;;5038024;28;20067;-61
2021/01/30 01:25:40;;;;;;;20.63;13.85;;;-1.10;69.40;;;;;;5037487;28;20472;-60
2021/01/30 01:28:06;;;;;;;18.08;11.98;;;-1.20;69.00;;;;;;5036119;28;20462;-60
2021/01/30 01:30:32;;;;;;;18.15;11.40;;;-1.20;69.30;;;;;;5034937;28;20442;-60
2021/01/30 01:32:58;;;;;;;19.60;11.93;;;-1.20;69.20;;;;;;5035704;28;20033;-61
2021/01/30 01:35:27;;;;;;;17.75;10.90;;;-1.20;69.00;;;;;;5038639;28;20021;-61
2021/01/30 01:37:53;;;;;;;25.50;14.63;;;-1.30;69.20;;;;;;5037060;28;20461;-61
2021/01/30 01:40:28;;;;;;;22.40;12.27;;;-1.30;69.20;;;;;;5034784;28;20028;-60
2021/01/30 01:43:07;;;;;;;22.92;13.80;;;-1.30;69.20;;;;;;5034175;28;20025;-60
2021/01/30 01:45:33;;;;;;;23.63;14.50;;;-1.30;69.10;;;;;;5038576;28;20025;-60
2021/01/30 01:48:06;;;;;;;28.48;16.38;;;-1.40;69.00;;;;;;5036045;28;20040;-61
2021/01/30 01:50:39;;;;;;;27.50;14.65;;;-1.40;69.20;;;;;;5054393;28;20442;-60
2021/01/30 01:53:27;;;;;;;27.58;15.45;;;-1.40;69.20;;;;;;5035287;28;20076;-60
2021/01/30 01:55:58;;;;;;;24.38;14.30;;;-1.50;69.30;;;;;;5036624;28;20035;-61
2021/01/30 01:58:25;;;;;;;20.70;12.68;;;-1.40;69.40;;;;;;5034105;28;20107;-61
2021/01/30 02:00:53;;;;;;;22.38;14.32;;;-1.40;69.10;;;;;;5035536;28;20013;-61
2021/01/30 02:03:20;;;;;;;22.00;14.07;;;-1.40;69.10;;;;;;5036491;28;20021;-61
2021/01/30 02:05:46;;;;;;;22.60;13.98;;;-1.40;69.30;;;;;;5036620;28;20465;-59
2021/01/30 02:08:14;;;;;;;19.80;14.38;;;-1.50;69.30;;;;;;5036156;28;20027;-61
2021/01/30 02:10:47;;;;;;;27.48;16.75;;;-1.50;69.30;;;;;;5034393;28;20040;-60
2021/01/30 02:13:20;;;;;;;27.55;17.65;;;-1.50;69.30;;;;;;5035054;28;20021;-60
2021/01/30 02:15:48;;;;;;;18.00;12.13;;;-1.50;69.60;;;;;;5033768;28;20018;-61
2021/01/30 02:18:52;;;;;;;27.67;17.63;;;-1.50;69.10;;;;;;5035825;28;20029;-59
2021/01/30 02:21:42;;;;;;;31.27;19.00;;;-1.50;69.20;;;;;;5037429;28;20370;-61
2021/01/30 02:24:08;;;;;;;30.58;17.15;;;-1.50;69.20;;;;;;5035347;28;20159;-61
2021/01/30 02:27:11;;;;;;;28.05;17.90;;;-1.50;69.40;;;;;;5047356;28;20045;-59
2021/01/30 02:30:04;;;;;;;22.77;14.15;;;-1.50;69.30;;;;;;5034428;28;20115;-61
2021/01/30 02:33:23;;;;;;;28.23;17.35;;;-1.60;69.10;;;;;;5033449;28;20555;-61
2021/01/30 02:35:55;;;;;;;24.48;14.02;;;-1.70;68.60;;;;;;5030794;28;20087;-61
2021/01/30 02:38:25;;;;;;;21.38;13.75;;;-1.80;68.60;;;;;;5037674;28;20029;-61
2021/01/30 02:40:56;;;;;;;33.10;18.85;;;-1.80;68.90;;;;;;5034134;28;20021;-61
2021/01/30 02:43:29;;;;;;;37.13;20.90;;;-1.90;68.80;;;;;;5033190;28;20025;-60
2021/01/30 02:46:00;;;;;;;33.63;17.40;;;-2.00;68.90;;;;;;5037753;28;20017;-61
2021/01/30 02:48:31;;;;;;;42.10;21.55;;;-2.00;69.00;;;;;;5034971;28;20022;-60
2021/01/30 02:51:01;;;;;;;30.00;18.00;;;-2.10;69.20;;;;;;5036149;28;20466;-61
2021/01/30 02:53:31;;;;;;;27.48;14.73;;;-2.00;69.50;;;;;;5034900;28;20064;-60
2021/01/30 02:56:01;;;;;;;34.03;18.05;;;-2.00;70.10;;;;;;5034379;28;20025;-61
2021/01/30 02:58:34;;;;;;;30.88;17.38;;;-2.00;69.40;;;;;;5033133;28;20026;-61
2021/01/30 03:01:00;;;;;;;30.38;17.75;;;-2.00;69.60;;;;;;5038049;28;20029;-61
2021/01/30 03:03:26;;;;;;;29.05;16.15;;;-2.00;69.60;;;;;;5035130;28;20524;-61
2021/01/30 03:06:00;;;;;;;26.13;15.25;;;-1.90;69.70;;;;;;5035795;28;20032;-60
2021/01/30 03:08:38;;;;;;;27.48;15.27;;;-1.90;69.50;;;;;;5034546;28;20358;-61
2021/01/30 03:11:30;;;;;;;29.52;18.02;;;-1.90;69.40;;;;;;5034898;28;20037;-61
2021/01/30 03:14:07;;;;;;;26.15;16.75;;;-1.90;69.60;;;;;;5033481;28;20140;-61
2021/01/30 03:16:39;;;;;;;29.33;17.70;;;-1.80;69.60;;;;;;5033121;28;20017;-61
2021/01/30 03:19:23;;;;;;;;;;;-1.80;69.70;;;;;;5035588;28;20029;-59
2021/01/30 03:21:59;;;;;;;24.38;13.18;;;-1.90;69.30;;;;;;5035226;28;19909;-59
2021/01/30 03:24:26;;;;;;;27.10;16.90;;;-1.80;69.30;;;;;;5035124;28;20033;-59
2021/01/30 03:26:52;;;;;;;31.13;17.45;;;-1.90;69.20;;;;;;5033800;28;20361;-58
2021/01/30 03:29:19;;;;;;;29.67;17.45;;;-1.90;69.20;;;;;;5033430;28;20013;-60
2021/01/30 03:31:45;;;;;;;26.27;15.02;;;-1.90;69.40;;;;;;5033500;28;20417;-58
2021/01/30 03:34:11;;;;;;;26.52;14.23;;;-1.90;69.40;;;;;;5033034;28;20374;-60
2021/01/30 03:36:37;;;;;;;28.08;16.30;;;-1.90;69.20;;;;;;5037191;28;20040;-61
2021/01/30 03:39:07;;;;;;;25.40;15.57;;;-2.00;69.10;;;;;;5034218;28;20022;-60
2021/01/30 03:41:32;;;;;;;29.92;16.20;;;-2.00;69.30;;;;;;5032794;28;20018;-61
2021/01/30 03:43:58;;;;;;;27.70;16.13;;;-2.10;69.20;;;;;;5035136;28;20039;-61
2021/01/30 03:46:24;;;;;;;23.95;15.48;;;-2.10;69.40;;;;;;5034774;28;20029;-61
2021/01/30 03:48:49;;;;;;;24.50;13.82;;;-2.10;69.60;;;;;;5036149;28;20045;-61
2021/01/30 03:51:15;;;;;;;27.70;16.27;;;-2.10;69.70;;;;;;5038620;28;20358;-60
2021/01/30 03:53:41;;;;;;;25.42;15.73;;;-2.10;69.70;;;;;;5038916;28;20032;-61
2021/01/30 03:56:09;;;;;;;29.65;17.17;;;-2.10;69.70;;;;;;5036108;28;20017;-61
2021/01/30 03:58:40;;;;;;;27.38;16.05;;;-2.10;69.60;;;;;;5035944;28;20037;-60
2021/01/30 04:01:06;;;;;;;25.30;16.30;;;-2.20;69.80;;;;;;5040759;28;20399;-61
2021/01/30 04:03:32;;;;;;;24.75;15.57;;;-2.10;70.10;;;;;;5040885;28;20036;-59
2021/01/30 04:05:58;;;;;;;27.75;17.27;;;-2.00;70.20;;;;;;5039419;28;20104;-60
2021/01/30 04:08:24;;;;;;;36.47;21.85;;;-1.90;69.90;;;;;;5039871;28;20096;-60
2021/01/30 04:10:50;;;;;;;37.50;21.98;;;-1.90;70.20;;;;;;5036665;28;20072;-61
2021/01/30 04:13:18;;;;;;;46.80;26.30;;;-1.80;69.90;;;;;;5037198;28;20028;-60
2021/01/30 04:15:44;;;;;;;56.35;30.10;;;-1.80;69.70;;;;;;5035830;28;20037;-59
2021/01/30 04:18:10;;;;;;;55.13;31.75;;;-1.80;69.60;;;;;;5038043;28;20025;-61
2021/01/30 04:20:36;;;;;;;59.60;33.35;;;-1.90;69.80;;;;;;5037739;28;20031;-59
2021/01/30 04:23:03;;;;;;;52.30;29.63;;;-1.80;69.80;;;;;;5041371;28;20029;-61
2021/01/30 04:25:29;;;;;;;41.22;25.45;;;-1.80;69.90;;;;;;5038033;28;20434;-60
2021/01/30 04:27:55;;;;;;;46.38;27.00;;;-1.80;69.60;;;;;;5037431;28;20101;-61
2021/01/30 04:30:24;;;;;;;48.10;26.67;;;-1.80;69.60;;;;;;5036155;28;20465;-60
2021/01/30 04:32:50;;;;;;;38.70;22.88;;;-1.80;70.10;;;;;;5035670;28;20033;-60
2021/01/30 04:35:22;;;;;;;43.55;26.15;;;-1.80;69.50;;;;;;5037343;28;20025;-61
2021/01/30 04:37:47;;;;;;;;;;;-1.80;69.40;;;;;;5040490;28;20029;-61
2021/01/30 04:40:34;;;;;;;39.55;20.52;;;-1.80;69.50;;;;;;5037049;28;19987;-61
2021/01/30 04:43:29;;;;;;;32.60;18.00;;;-1.80;69.60;;;;;;5038096;28;20025;-61
2021/01/30 04:46:18;;;;;;;32.00;18.65;;;-1.80;69.50;;;;;;5037376;28;20487;-61
2021/01/30 04:49:00;;;;;;;22.33;15.48;;;-1.80;69.60;;;;;;5037244;28;20017;-61
2021/01/30 04:51:41;;;;;;;22.77;15.90;;;-1.80;69.60;;;;;;5037528;28;20021;-61
2021/01/30 04:54:18;;;;;;;33.13;18.92;;;-1.70;69.80;;;;;;5037329;28;20454;-61
2021/01/30 04:57:08;;;;;;;26.40;16.10;;;-1.70;69.90;;;;;;5035608;28;20339;-61
2021/01/30 04:59:43;;;;;;;23.40;14.27;;;-1.70;69.70;;;;;;5035376;28;20071;-61
2021/01/30 05:02:16;;;;;;;29.30;18.17;;;-1.70;70.00;;;;;;5034059;28;20056;-61
2021/01/30 05:04:44;;;;;;;24.35;15.63;;;-1.70;70.10;;;;;;5039193;28;20026;-61
2021/01/30 05:07:29;;;;;;;33.35;20.15;;;-1.60;69.80;;;;;;5036370;28;20067;-61
2021/01/30 05:10:21;;;;;;;46.25;21.88;;;-1.60;69.90;;;;;;5035525;28;20045;-61
2021/01/30 05:13:00;;;;;;;55.50;27.75;;;-1.60;69.70;;;;;;5036549;28;20033;-61
2021/01/30 05:15:43;;;;;;;65.82;33.03;;;-1.60;69.60;;;;;;5034958;28;20088;-61
2021/01/30 05:18:12;;;;;;;46.05;30.15;;;-1.60;69.80;;;;;;5034594;28;20061;-61
2021/01/30 05:20:43;;;;;;;46.42;28.10;;;-1.60;69.80;;;;;;5036839;28;20478;-60
2021/01/30 05:23:11;;;;;;;41.22;25.92;;;-1.60;70.00;;;;;;5042347;28;20373;-61
2021/01/30 05:25:37;;;;;;;31.58;21.75;;;-1.50;69.90;;;;;;5035620;28;20088;-61
2021/01/30 05:28:17;;;;;;;40.65;27.90;;;-1.50;69.70;;;;;;5036553;28;20022;-61
2021/01/30 05:30:54;;;;;;;30.77;19.67;;;-1.50;69.60;;;;;;5036703;28;20025;-61
2021/01/30 05:33:36;;;;;;;25.58;18.17;;;-1.40;69.90;;;;;;5037049;28;20109;-61
2021/01/30 05:36:02;;;;;;;29.58;18.27;;;-1.50;69.80;;;;;;5034081;28;20040;-61
2021/01/30 05:38:55;;;;;;;30.17;17.92;;;-1.50;69.50;;;;;;5037428;28;20021;-61
2021/01/30 05:41:54;;;;;;;27.02;16.42;;;-1.50;69.40;;;;;;5034591;28;20033;-61
2021/01/30 05:44:36;;;;;;;25.83;15.60;;;-1.50;69.60;;;;;;5033760;28;20026;-60
2021/01/30 05:47:04;;;;;;;26.63;16.42;;;-1.50;69.80;;;;;;5036547;28;20026;-60
2021/01/30 05:49:33;;;;;;;27.70;16.35;;;-1.40;69.90;;;;;;5037502;28;20449;-60
2021/01/30 05:52:08;;;;;;;26.77;17.25;;;-1.40;69.80;;;;;;5037102;28;20040;-61
2021/01/30 05:54:33;;;;;;;37.10;20.02;;;-1.40;69.80;;;;;;5034866;28;20013;-61
2021/01/30 05:56:59;;;;;;;34.40;21.05;;;-1.30;69.70;;;;;;5034185;28;20493;-61
2021/01/30 05:59:26;;;;;;;40.63;23.60;;;-1.30;69.90;;;;;;5034403;28;20112;-61
2021/01/30 06:02:13;;;;;;;44.33;26.60;;;-1.30;69.60;;;;;;5035064;28;20366;-61
2021/01/30 06:04:39;;;;;;;40.80;23.67;;;-1.30;69.70;;;;;;5038202;28;20079;-61
2021/01/30 06:07:05;;;;;;;35.17;21.17;;;-1.30;69.80;;;;;;5035346;28;20051;-59
2021/01/30 06:09:36;;;;;;;42.10;23.80;;;-1.20;69.80;;;;;;5037277;28;20041;-61
2021/01/30 06:12:16;;;;;;;37.97;21.77;;;-1.10;70.00;;;;;;5034320;28;20477;-61
2021/01/30 06:14:42;;;;;;;39.55;21.13;;;-1.10;69.90;;;;;;5034923;28;20022;-61
2021/01/30 06:17:15;;;;;;;44.03;24.25;;;-1.00;69.90;;;;;;5033653;28;20141;-61
2021/01/30 06:19:40;;;;;;;41.67;24.23;;;-0.90;69.70;;;;;;5038538;28;20048;-61
2021/01/30 06:22:22;;;;;;;42.85;25.05;;;-0.90;69.70;;;;;;5037216;28;20029;-61
2021/01/30 06:24:49;;;;;;;35.60;22.92;;;-0.80;69.70;;;;;;5037166;28;20350;-61
2021/01/30 06:27:18;;;;;;;42.67;23.83;;;-0.80;69.90;;;;;;5034567;28;20547;-60
2021/01/30 06:29:49;;;;;;;41.05;24.80;;;-0.60;70.00;;;;;;5035137;28;20017;-61
2021/01/30 06:32:26;;;;;;;41.63;25.27;;;-0.50;70.00;;;;;;5033869;28;20100;-59
2021/01/30 06:35:13;;;;;;;45.30;25.10;;;-0.40;69.80;;;;;;5033537;28;20033;-61
2021/01/30 06:37:59;;;;;;;44.67;25.67;;;-0.40;69.60;;;;;;5036681;28;20037;-61
2021/01/30 06:40:35;;;;;;;37.70;25.40;;;-0.30;69.80;;;;;;5037394;28;20021;-60
2021/01/30 06:43:32;;;;;;;40.83;24.33;;;-0.20;69.70;;;;;;5033599;28;20033;-61
2021/01/30 06:46:23;;;;;;;40.95;24.77;;;-0.10;69.60;;;;;;5035603;28;20028;-60
2021/01/30 06:48:52;;;;;;;39.45;24.95;;;-0.10;69.70;;;;;;5040670;28;20026;-61
2021/01/30 06:51:35;;;;;;;46.28;26.83;;;0.00;69.50;;;;;;5036829;28;20366;-61
2021/01/30 06:54:19;;;;;;;39.92;24.63;;;0.10;69.20;;;;;;5037277;28;20032;-60
2021/01/30 06:56:54;;;;;;;51.17;28.75;;;0.10;68.80;;;;;;5036480;28;20378;-61
2021/01/30 06:59:26;;;;;;;56.75;31.92;;;0.10;68.80;;;;;;5033639;28;20071;-60
2021/01/30 07:01:52;;;;;;;58.03;31.38;;;0.20;68.70;;;;;;5032917;28;20021;-61
2021/01/30 07:04:42;;;;;;;56.28;31.35;;;0.20;68.80;;;;;;5037372;28;20025;-61
2021/01/30 07:07:20;;;;;;;53.95;30.10;;;0.20;68.70;;;;;;5034506;28;20037;-60
2021/01/30 07:10:05;;;;;;;43.28;23.38;;;0.20;69.00;;;;;;5035519;28;20045;-60
2021/01/30 07:12:51;;;;;;;43.33;24.90;;;0.20;68.30;;;;;;5033774;28;20021;-61
2021/01/30 07:15:26;;;;;;;37.47;20.65;;;0.20;68.40;;;;;;5033584;28;20025;-61
2021/01/30 07:17:58;;;;;;;32.33;19.27;;;0.20;68.60;;;;;;5033365;28;20065;-61
2021/01/30 07:20:31;;;;;;;;;;;0.20;68.50;;;;;;5035749;28;20037;-60
2021/01/30 07:23:09;;;;;;;28.48;17.40;;;0.10;67.90;;;;;;5036801;28;19909;-61
2021/01/30 07:26:15;;;;;;;30.00;16.77;;;0.20;68.40;;;;;;5040858;28;20022;-61
2021/01/30 07:28:46;;;;;;;32.20;17.98;;;0.20;69.10;;;;;;5036356;28;20033;-61
2021/01/30 07:31:34;;;;;;;35.72;21.33;;;0.20;68.30;;;;;;5037310;28;20143;-61
2021/01/30 07:34:03;;;;;;;45.58;26.45;;;0.20;68.60;;;;;;5036557;28;20100;-61
2021/01/30 07:36:34;;;;;;;46.78;28.77;;;0.30;68.80;;;;;;5037674;28;20013;-61
2021/01/30 07:39:31;;;;;;;45.75;27.58;;;0.40;68.80;;;;;;5040286;28;20017;-60
2021/01/30 07:42:05;;;;;;;40.67;25.63;;;0.50;68.80;;;;;;5037421;28;20605;-61
2021/01/30 07:44:52;;;;;;;45.10;27.95;;;0.50;68.90;;;;;;5035024;28;20021;-61
2021/01/30 07:47:26;;;;;;;46.15;27.85;;;0.60;68.30;;;;;;5036769;28;20656;-59
2021/01/30 07:49:59;;;;;;;42.63;23.92;;;0.60;67.90;;;;;;5036676;28;20072;-59
2021/01/30 07:52:41;;;;;;;35.65;21.65;;;0.60;67.80;;;;;;5039119;28;20477;-61
2021/01/30 07:55:10;;;;;;;32.90;21.15;;;0.60;67.90;;;;;;5036012;28;20071;-61
2021/01/30 07:57:59;;;;;;;43.42;26.23;;;0.50;67.90;;;;;;5037712;28;20037;-62
2021/01/30 08:00:57;;;;;;;35.60;21.45;;;0.60;68.10;;;;;;5043146;28;20547;-59
2021/01/30 08:03:40;;;;;;;30.33;19.02;;;0.60;67.90;;;;;;5033728;28;20088;-59
2021/01/30 08:06:39;;;;;;;33.22;19.45;;;0.60;68.10;;;;;;5038018;28;20029;-61
2021/01/30 08:09:27;;;;;;;28.23;18.02;;;0.60;67.80;;;;;;5034938;28;20048;-60
2021/01/30 08:12:21;;;;;;;27.20;17.00;;;0.60;68.00;;;;;;5039546;28;20120;-61
2021/01/30 08:15:18;;;;;;;23.73;15.18;;;0.60;68.30;;;;;;5037295;28;20119;-61
2021/01/30 08:17:58;;;;;;;28.20;17.23;;;0.60;68.20;;;;;;5035802;28;20037;-61
2021/01/30 08:20:37;;;;;;;20.80;14.20;;;0.70;68.00;;;;;;5040305;28;20021;-60
2021/01/30 08:23:34;;;;;;;21.38;13.80;;;0.70;68.50;;;;;;5040971;28;20095;-61
2021/01/30 08:26:14;;;;;;;22.30;12.98;;;0.80;68.50;;;;;;5034203;28;20401;-61
2021/01/30 08:28:49;;;;;;;20.80;14.63;;;0.80;68.30;;;;;;5039558;28;20032;-61
2021/01/30 08:31:48;;;;;;;18.58;12.45;;;0.70;68.20;;;;;;5036756;28;20100;-61
2021/01/30 08:34:20;;;;;;;16.38;11.32;;;0.80;68.00;;;;;;5036684;28;20079;-61
2021/01/30 08:36:46;;;;;;;;;;;0.70;68.30;;;;;;5040601;28;20030;-61
2021/01/30 08:39:28;;;;;;;15.40;10.73;;;0.70;68.60;;;;;;5037971;28;19913;-61
2021/01/30 08:42:14;;;;;;;14.10;9.57;;;0.80;69.00;;;;;;5036674;28;20053;-59
2021/01/30 08:44:49;;;;;;;19.35;12.50;;;0.80;68.80;;;;;;5036229;28;20049;-61
2021/01/30 08:47:19;;;;;;;22.65;15.13;;;0.80;68.90;;;;;;5036504;28;20529;-60
2021/01/30 08:50:31;;;;;;;22.48;15.18;;;0.80;69.50;;;;;;5035042;28;20057;-61
2021/01/30 08:53:16;;;;;;;22.85;15.80;;;1.00;69.90;;;;;;5038614;28;20029;-61
2021/01/30 08:55:45;;;;;;;27.98;18.60;;;1.10;69.80;;;;;;5038447;28;20036;-60
2021/01/30 08:58:43;;;;;;;27.38;17.33;;;1.10;69.80;;;;;;5036675;28;20474;-61
2021/01/30 09:01:11;;;;;;;23.35;14.75;;;1.20;70.00;;;;;;5032456;28;20048;-60
2021/01/30 09:03:49;;;;;;;19.85;13.85;;;1.30;70.40;;;;;;5034718;28;20037;-61
2021/01/30 09:06:40;;;;;;;20.77;14.15;;;1.50;70.20;;;;;;5038752;28;20029;-59
2021/01/30 09:09:19;;;;;;;19.20;12.88;;;1.50;69.90;;;;;;5039134;28;20064;-60
2021/01/30 09:11:56;;;;;;;20.80;13.40;;;1.50;69.90;;;;;;5039419;28;20030;-59
2021/01/30 09:14:22;;;;;;;24.38;14.40;;;1.60;69.90;;;;;;5033990;28;20021;-60
2021/01/30 09:16:56;;;;;;;20.58;12.82;;;1.60;69.70;;;;;;5035586;28;20025;-60
2021/01/30 09:19:31;;;;;;;20.25;13.23;;;1.60;70.20;;;;;;5034641;28;20754;-61
2021/01/30 09:22:06;;;;;;;19.00;12.57;;;1.60;69.90;;;;;;5037962;28;20389;-59
2021/01/30 09:25:02;;;;;;;20.50;14.23;;;1.60;69.80;;;;;;5037618;28;20104;-60
2021/01/30 09:27:33;;;;;;;20.00;12.82;;;1.60;70.10;;;;;;5038663;28;20041;-61
2021/01/30 09:30:37;;;;;;;17.50;12.73;;;1.60;70.00;;;;;;5037330;28;20021;-61
2021/01/30 09:33:15;;;;;;;17.58;11.30;;;1.50;70.10;;;;;;5029985;28;20091;-61
2021/01/30 09:35:43;;;;;;;22.90;14.65;;;1.50;70.10;;;;;;5035673;28;20034;-61
2021/01/30 09:38:24;;;;;;;20.85;14.48;;;1.50;70.40;;;;;;5035497;28;20032;-61
2021/01/30 09:41:09;;;;;;;20.77;12.87;;;1.50;70.70;;;;;;5034595;28;20043;-61
2021/01/30 09:43:35;;;;;;;21.55;13.15;;;1.50;71.00;;;;;;5033430;28;20333;-61
2021/01/30 09:46:04;;;;;;;19.27;12.95;;;1.50;71.10;;;;;;5037098;28;20532;-61
2021/01/30 09:48:31;;;;;;;23.42;15.15;;;1.50;70.90;;;;;;5035611;28;20025;-61
2021/01/30 09:50:59;;;;;;;20.55;14.30;;;1.40;71.00;;;;;;5044620;28;20028;-60
2021/01/30 09:53:31;;;;;;;25.35;16.60;;;1.40;71.00;;;;;;5043260;28;20025;-59
2021/01/30 09:56:07;;;;;;;28.15;19.00;;;1.30;71.10;;;;;;5043869;28;20485;-61
2021/01/30 09:58:35;;;;;;;23.52;15.95;;;1.30;71.40;;;;;;5043433;28;20021;-61
2021/01/30 10:01:07;;;;;;;27.13;18.20;;;1.20;71.40;;;;;;5047654;28;20377;-60
2021/01/30 10:03:42;;;;;;;24.55;15.85;;;1.20;72.10;;;;;;5038643;28;20064;-60
2021/01/30 10:06:30;;;;;;;23.77;16.42;;;1.20;72.30;;;;;;5036089;28;20038;-60
2021/01/30 10:09:08;;;;;;;27.75;17.35;;;1.20;72.30;;;;;;5041942;28;20083;-61
2021/01/30 10:11:36;;;;;;;26.55;17.52;;;1.20;72.80;;;;;;5039359;28;20029;-61
2021/01/30 10:14:03;;;;;;;29.55;17.02;;;1.30;73.20;;;;;;5052832;28;20040;-61
2021/01/30 10:16:29;;;;;;;22.88;14.80;;;1.40;73.10;;;;;;5050772;28;20061;-61
2021/01/30 10:18:57;;;;;;;22.95;14.52;;;1.50;73.00;;;;;;5048790;28;20039;-62
2021/01/30 10:21:41;;;;;;;21.13;14.38;;;1.50;72.60;;;;;;5045545;28;20021;-61
2021/01/30 10:24:11;;;;;;;21.40;13.40;;;1.50;72.30;;;;;;5044736;28;20021;-61
2021/01/30 10:26:37;;;;;;;21.88;14.63;;;1.30;72.00;;;;;;5042717;28;20131;-61
2021/01/30 10:29:08;;;;;;;22.52;13.60;;;1.20;72.50;;;;;;5034147;28;20100;-60
2021/01/30 10:31:54;;;;;;;23.45;14.75;;;1.10;72.90;;;;;;5046711;28;20037;-59
2021/01/30 10:34:25;;;;;;;20.20;13.82;;;1.10;73.30;;;;;;5041405;28;20523;-61
2021/01/30 10:36:56;;;;;;;22.80;14.60;;;1.00;73.90;;;;;;5041482;28;20028;-59
2021/01/30 10:39:24;;;;;;;25.40;15.40;;;1.00;74.20;;;;;;5046736;28;20465;-60
2021/01/30 10:41:52;;;;;;;22.25;14.40;;;1.00;74.40;;;;;;5035740;28;20031;-59
2021/01/30 10:44:27;;;;;;;22.95;16.40;;;1.00;74.60;;;;;;5042208;28;20057;-61
2021/01/30 10:46:59;;;;;;;20.98;14.23;;;1.00;74.80;;;;;;5042377;28;20037;-61
2021/01/30 10:49:35;;;;;;;22.10;16.33;;;0.90;74.90;;;;;;5041175;28;20025;-61
2021/01/30 10:52:11;;;;;;;20.40;14.32;;;0.80;75.30;;;;;;5044891;28;20083;-61
2021/01/30 10:54:42;;;;;;;21.67;14.77;;;0.90;75.90;;;;;;5038215;28;20029;-61
2021/01/30 10:57:18;;;;;;;26.73;16.15;;;0.80;75.90;;;;;;5051485;28;20047;-61
2021/01/30 11:00:03;;;;;;;26.58;16.38;;;0.90;76.20;;;;;;5061768;28;20476;-61
2021/01/30 11:02:44;;;;;;;25.02;15.00;;;0.80;76.30;;;;;;5050054;28;20025;-60
2021/01/30 11:05:19;;;;;;;24.37;16.00;;;0.90;76.80;;;;;;5045931;28;20033;-61
2021/01/30 11:07:52;;;;;;;23.45;15.90;;;0.90;77.10;;;;;;5047729;28;20254;-60
2021/01/30 11:10:43;;;;;;;27.33;16.40;;;0.80;77.10;;;;;;5052747;28;20550;-60
2021/01/30 11:13:12;;;;;;;24.42;16.02;;;0.80;77.80;;;;;;5050711;28;20025;-61
2021/01/30 11:15:44;;;;;;;26.33;16.00;;;0.80;77.70;;;;;;5050324;28;20032;-60
2021/01/30 11:18:21;;;;;;;27.40;16.35;;;0.80;78.00;;;;;;5043755;28;20030;-60
2021/01/30 11:20:50;;;;;;;25.02;16.20;;;0.90;78.40;;;;;;5045709;28;20112;-61
2021/01/30 11:23:46;;;;;;;27.90;19.30;;;0.90;78.60;;;;;;5066119;28;20102;-61
2021/01/30 11:26:17;;;;;;;27.48;17.48;;;0.90;78.80;;;;;;5034154;28;20519;-60
2021/01/30 11:28:44;;;;;;;;;;;0.90;79.00;;;;;;5044574;28;20030;-60
2021/01/30 11:31:12;;;;;;;27.70;16.45;;;0.80;79.90;;;;;;5046515;28;19943;-61
2021/01/30 11:33:38;;;;;;;30.77;18.60;;;0.90;79.30;;;;;;5043489;28;20039;-61
2021/01/30 11:36:09;;;;;;;28.80;19.20;;;1.00;79.60;;;;;;5049382;28;20025;-61
2021/01/30 11:38:35;;;;;;;33.60;21.45;;;1.00;80.40;;;;;;5053136;28;20037;-61
2021/01/30 11:41:01;;;;;;;30.58;20.15;;;1.10;80.20;;;;;;5052603;28;20033;-60
2021/01/30 11:43:27;;;;;;;33.38;21.77;;;1.10;80.10;;;;;;5049439;28;20091;-61
2021/01/30 11:45:54;;;;;;;36.50;23.25;;;1.10;80.40;;;;;;5044792;28;20365;-61
2021/01/30 11:48:22;;;;;;;33.28;20.65;;;1.10;80.60;;;;;;5043140;28;20025;-60
2021/01/30 11:50:49;;;;;;;32.67;20.73;;;1.10;80.50;;;;;;5042045;28;20056;-61
2021/01/30 11:53:25;;;;;;;35.70;23.27;;;1.10;80.70;;;;;;5047848;28;20017;-61
2021/01/30 11:55:51;;;;;;;35.58;21.23;;;1.20;81.30;;;;;;5054348;28;20855;-61
2021/01/30 11:58:18;;;;;;;35.22;22.38;;;1.20;81.20;;;;;;5050014;28;20032;-61
2021/01/30 12:00:44;;;;;;;37.78;22.88;;;1.20;81.60;;;;;;5043726;28;20803;-58
2021/01/30 12:03:22;;;;;;;33.13;22.25;;;1.20;81.90;;;;;;5048043;28;20082;-60
2021/01/30 12:05:47;;;;;;;32.15;23.15;;;1.20;82.20;;;;;;5046802;28;20029;-60
2021/01/30 12:08:13;;;;;;;29.20;19.98;;;1.20;82.10;;;;;;5049460;28;20017;-59
2021/01/30 12:10:39;;;;;;;35.60;22.65;;;1.20;82.30;;;;;;5052600;28;20041;-60
2021/01/30 12:13:04;;;;;;;35.63;20.33;;;1.20;82.30;;;;;;5053020;28;20021;-57
2021/01/30 12:15:30;;;;;;;31.77;20.73;;;1.20;82.50;;;;;;5049251;28;20087;-60
2021/01/30 12:17:56;;;;;;;31.90;20.70;;;1.30;82.60;;;;;;5039992;28;20030;-60
2021/01/30 12:20:25;;;;;;;35.42;22.52;;;1.30;82.60;;;;;;5049649;28;20020;-60
2021/01/30 12:22:50;;;;;;;31.35;21.15;;;1.40;82.80;;;;;;5044141;28;20053;-60
2021/01/30 12:25:18;;;;;;;32.95;22.80;;;1.40;82.70;;;;;;5040414;28;20103;-60
2021/01/30 12:27:57;;;;;;;30.95;20.58;;;1.40;82.80;;;;;;5045095;28;20036;-60
2021/01/30 12:30:26;;;;;;;28.25;19.42;;;1.40;83.00;;;;;;5045221;28;20474;-59
2021/01/30 12:32:52;;;;;;;35.33;21.75;;;1.40;83.20;;;;;;5036976;28;20114;-59
2021/01/30 12:35:20;;;;;;;31.45;21.45;;;1.50;83.10;;;;;;5041575;28;20022;-59
2021/01/30 12:37:46;;;;;;;30.75;19.75;;;1.50;83.10;;;;;;5037137;28;20485;-59
2021/01/30 12:40:14;;;;;;;30.98;18.15;;;1.60;83.10;;;;;;5037649;28;20029;-60
2021/01/30 12:42:41;;;;;;;27.67;18.65;;;1.60;83.20;;;;;;5036375;28;20442;-59
2021/01/30 12:45:07;;;;;;;29.95;19.55;;;1.70;83.10;;;;;;5043714;28;20029;-60
2021/01/30 12:47:34;;;;;;;32.20;20.45;;;1.80;83.10;;;;;;5052581;28;20021;-59
2021/01/30 12:50:00;;;;;;;31.15;19.73;;;1.80;82.90;;;;;;5051775;28;20025;-59
2021/01/30 12:52:26;;;;;;;27.75;19.13;;;1.90;83.00;;;;;;5049662;28;20107;-59
2021/01/30 12:54:52;;;;;;;31.42;21.45;;;1.90;83.10;;;;;;5048850;28;20029;-60
2021/01/30 12:57:19;;;;;;;31.17;20.48;;;2.00;83.10;;;;;;5054092;28;20024;-60
2021/01/30 12:59:44;;;;;;;32.35;20.52;;;2.10;83.00;;;;;;5054268;28;20099;-60
2021/01/30 13:02:10;;;;;;;32.50;19.67;;;2.10;83.10;;;;;;5045326;28;20465;-60
2021/01/30 13:04:36;;;;;;;31.95;20.80;;;2.10;83.00;;;;;;5052405;28;20040;-59
2021/01/30 13:07:02;;;;;;;29.27;19.40;;;2.10;82.90;;;;;;5041006;28;20367;-58